Aérodrome :
LOGIN :

S'inscrire | Disclaimer

   EN    FR    IT 

 










Légende :    VFR   VFR Marginal   IFR   IFR Intensif   IFR Très Intensif
Visi : 
Plafond : 
>= 8 km
>= 3000ft
5 à 8 km
1000 à 3000 ft
1500m à 5 km
500 à 1000 ft
800 à 1500m
200 à 500 ft
< 800m
< 200 ft
Symboles :   Orages  Brouillard  Fortes neiges  Fortes précipitations  Vent > 20 kt
SIGMETs :   Divers  Orages  Givrage  Turbulence  Onde Orograph.  Cendres Volcan.






- Altitude de l'aérodrome : 602 ft
- Code IATA : NVS


LFQG - Nevers

DERNIER METAR :
  • 271400Z AUTO 27021G31KT 240V310 9000 +RA FEW011/// BKN028/// BKN036/// ///CB 12/09 Q1000

METARs EXPIRÉS :
  • 271330Z AUTO 26019G35KT 220V280 9999 BKN025/// BKN034/// BKN047/// ///CB 13/09 Q0999
  • 271300Z AUTO 26019G30KT 9999 FEW016/// BKN026/// BKN036/// ///TCU 13/09 Q0999
  • 271230Z AUTO 25015G27KT 9999 -RA BKN011 OVC019 12/10 Q0998
  • 271200Z AUTO 23014G30KT 190V260 7000 -RA OVC011 11/10 Q0998
  • 271130Z AUTO 22017KT 6000 -RA BKN014 OVC019 11/09 Q0998

TAF N/A



MET'MAP, la Météo Aéronautique d'un coup d'oeil ! - Copyright ORBIFLY Décembre 2007 - Disclaimer

ORBIFLY MET'MAP TEAM :

Programmation & Développement : Alexandra Zaïnal
Sur une idée originale de : Baudouin d'Aumeries
Assistance à la programmation : Marc-Olivier Méhu
Soutien technique & logistique : Manuel Goepfert

Contact : metmap@orbifly.com




SOURCES & CREDITS :

   NOAA